Time;durP1;ratioP1;P1;durP2;ratioP2;P2;SDS_P1;SDS_P2;PMS_P1;PMS_P2;Temp;Humidity;BMP_temperature;BMP_pressure;BME280_temperature;BME280_humidity;BME280_pressure;Samples;Min_cycle;Max_cycle;Signal;HPM_P1;HPM_P2
2023/08/19 00:01:15;;;;;;;;;;;;;;;;;;6311437;28;19943;-62
2023/08/19 00:04:16;;;;;;;;;;;;;;;;;;6311372;28;19928;-63
2023/08/19 00:07:16;;;;;;;;;;;;;;;;;;6317329;28;19943;-63
2023/08/19 00:10:17;;;;;;;;;;;;;;;;;;6276906;28;19924;-63
2023/08/19 00:13:17;;;;;;;;;;;;;;;;;;6300450;28;20383;-62
2023/08/19 00:16:18;;;;;;;;;;;;;;;;;;6310129;28;19927;-62
2023/08/19 00:19:18;;;;;;;;;;;;;;;;;;6317667;28;19919;-62
2023/08/19 00:22:19;;;;;;;;;;;;;;;;;;6313452;28;19920;-63
2023/08/19 00:25:19;;;;;;;;;;;;;;;;;;6311651;28;19931;-62
2023/08/19 00:28:20;;;;;;;;;;;;;;;;;;6313911;28;19924;-62
2023/08/19 00:31:20;;;;;;;;;;;;;;;;;;6316028;28;20315;-62
2023/08/19 00:34:21;;;;;;;;;;;;;;;;;;6312348;28;19924;-63
2023/08/19 00:37:22;;;;;;;;;;;;;;;;;;6306601;28;19966;-62
2023/08/19 00:40:22;;;;;;;;;;;;;;;;;;6291973;28;19920;-62
2023/08/19 00:43:23;;;;;;;;;;;;;;;;;;6310728;28;20317;-63
2023/08/19 00:46:23;;;;;;;;;;;;;;;;;;6310439;28;20662;-63
2023/08/19 00:49:24;;;;;;;;;;;;;;;;;;6312334;28;19920;-62
2023/08/19 00:52:24;;;;;;;;;;;;;;;;;;6311878;28;19920;-61
2023/08/19 00:55:25;;;;;;;;;;;;;;;;;;6311520;28;20333;-61
2023/08/19 00:58:25;;;;;;;;;;;;;;;;;;6316907;28;20276;-62
2023/08/19 01:01:26;;;;;;;;;;;;;;;;;;6309125;28;20156;-62
2023/08/19 01:04:26;;;;;;;;;;;;;;;;;;6312455;28;19935;-61
2023/08/19 01:07:28;;;;;;;;;;;;;;;;;;6311557;28;19928;-62
2023/08/19 01:10:31;;;;;;;;;;;;;;;;;;6309306;28;19924;-63
2023/08/19 01:13:36;;;;;;;;;;;;;;;;;;6314511;28;19923;-63
2023/08/19 01:16:37;;;;;;;;;;;;;;;;;;6312031;28;19923;-63
2023/08/19 01:19:39;;;;;;;;;;;;;;;;;;6300704;28;19920;-63
2023/08/19 01:22:55;;;;;;;;;;;;;;;;;;6295394;28;20341;-62
2023/08/19 01:25:56;;;;;;;;;;;;;;;;;;6313876;28;19924;-63
2023/08/19 01:28:56;;;;;;;;;;;;;;;;;;6292291;28;20432;-63
2023/08/19 01:31:57;;;;;;;;;;;;;;;;;;6316635;28;19924;-64
2023/08/19 01:34:58;;;;;;;;;;;;;;;;;;6311643;28;19956;-63
2023/08/19 01:38:02;;;;;;;;;;;;;;;;;;6310377;28;20322;-63
2023/08/19 01:41:03;;;;;;;;;;;;;;;;;;6311352;28;20015;-62
2023/08/19 01:44:04;;;;;;;;;;;;;;;;;;6318742;28;19920;-62
2023/08/19 01:47:12;;;;;;;;;;;;;;;;;;6307435;28;20319;-61
2023/08/19 01:50:13;;;;;;;;;;;;;;;;;;6298634;28;19969;-62
2023/08/19 01:53:13;;;;;;;;;;;;;;;;;;6320517;28;19923;-62
2023/08/19 01:56:14;;;;;;;;;;;;;;;;;;6293157;28;19931;-62
2023/08/19 01:59:14;;;;;;;;;;;;;;;;;;6305928;28;20383;-62
2023/08/19 02:02:15;;;;;;;;;;;;;;;;;;6317040;28;19989;-62
2023/08/19 02:05:15;;;;;;;;;;;;;;;;;;6319256;28;19922;-61
2023/08/19 02:08:16;;;;;;;;;;;;;;;;;;6319209;28;19963;-62
2023/08/19 02:11:16;;;;;;;;;;;;;;;;;;6316058;28;19924;-62
2023/08/19 02:14:17;;;;;;;;;;;;;;;;;;6317962;28;19925;-62
2023/08/19 02:17:17;;;;;;;;;;;;;;;;;;6317396;28;19920;-62
2023/08/19 02:20:18;;;;;;;;;;;;;;;;;;6315947;28;19920;-62
2023/08/19 02:23:18;;;;;;;;;;;;;;;;;;6316229;28;20006;-62
2023/08/19 02:26:19;;;;;;;;;;;;;;;;;;6318467;28;19950;-61
2023/08/19 02:29:19;;;;;;;;;;;;;;;;;;6315878;28;19940;-61
2023/08/19 02:32:20;;;;;;;;;;;;;;;;;;6315448;28;19924;-62
2023/08/19 02:35:20;;;;;;;;;;;;;;;;;;6314905;28;19931;-63
2023/08/19 02:38:21;;;;;;;;;;;;;;;;;;6317220;28;20252;-62
2023/08/19 02:41:21;;;;;;;;;;;;;;;;;;6314975;28;19920;-62
2023/08/19 02:44:22;;;;;;;;;;;;;;;;;;6303794;28;19920;-63
2023/08/19 02:47:22;;;;;;;;;;;;;;;;;;6296663;28;20345;-62
2023/08/19 02:50:23;;;;;;;;;;;;;;;;;;6314437;28;19942;-63
2023/08/19 02:53:23;;;;;;;;;;;;;;;;;;6315108;28;20413;-62
2023/08/19 02:56:25;;;;;;;;;;;;;;;;;;6317142;28;19930;-62
2023/08/19 02:59:25;;;;;;;;;;;;;;;;;;6315243;28;19924;-62
2023/08/19 03:02:26;;;;;;;;;;;;;;;;;;6327530;28;19924;-62
2023/08/19 03:05:26;;;;;;;;;;;;;;;;;;6334408;28;19934;-62
2023/08/19 03:08:27;;;;;;;;;;;;;;;;;;6324757;28;20636;-62
2023/08/19 03:11:27;;;;;;;;;;;;;;;;;;6315469;28;20002;-63
2023/08/19 03:14:28;;;;;;;;;;;;;;;;;;6314583;28;19920;-63
2023/08/19 03:17:29;;;;;;;;;;;;;;;;;;6317190;28;20469;-63
2023/08/19 03:20:29;;;;;;;;;;;;;;;;;;6295880;28;19931;-62
2023/08/19 03:23:30;;;;;;;;;;;;;;;;;;6296408;28;20329;-63
2023/08/19 03:26:30;;;;;;;;;;;;;;;;;;6317242;28;19921;-62
2023/08/19 03:29:31;;;;;;;;;;;;;;;;;;6297747;28;20683;-62
2023/08/19 03:32:32;;;;;;;;;;;;;;;;;;6317140;28;19920;-61
2023/08/19 03:35:35;;;;;;;;;;;;;;;;;;6311698;28;20389;-63
2023/08/19 03:38:36;;;;;;;;;;;;;;;;;;6313984;28;19942;-62
2023/08/19 03:41:36;;;;;;;;;;;;;;;;;;6314136;28;19928;-62
2023/08/19 03:44:37;;;;;;;;;;;;;;;;;;6317727;28;19920;-62
2023/08/19 03:47:37;;;;;;;;;;;;;;;;;;6304891;28;20279;-62
2023/08/19 03:50:38;;;;;;;;;;;;;;;;;;6313962;28;19945;-62
2023/08/19 03:53:39;;;;;;;;;;;;;;;;;;6315198;28;19924;-62
2023/08/19 03:56:39;;;;;;;;;;;;;;;;;;6289750;28;20050;-62
2023/08/19 03:59:40;;;;;;;;;;;;;;;;;;6292362;28;20299;-62
2023/08/19 04:02:40;;;;;;;;;;;;;;;;;;6306295;28;19924;-62
2023/08/19 04:05:41;;;;;;;;;;;;;;;;;;6312198;28;19927;-64
2023/08/19 04:08:42;;;;;;;;;;;;;;;;;;6317279;28;20577;-63
2023/08/19 04:11:42;;;;;;;;;;;;;;;;;;6313632;28;19920;-62
2023/08/19 04:14:43;;;;;;;;;;;;;;;;;;6313413;28;19920;-63
2023/08/19 04:17:43;;;;;;;;;;;;;;;;;;6311823;28;19921;-63
2023/08/19 04:20:44;;;;;;;;;;;;;;;;;;6316704;28;19966;-63
2023/08/19 04:23:44;;;;;;;;;;;;;;;;;;6311789;28;19924;-62
2023/08/19 04:26:45;;;;;;;;;;;;;;;;;;6310190;28;19924;-63
2023/08/19 04:29:45;;;;;;;;;;;;;;;;;;6309319;28;20374;-62
2023/08/19 04:32:46;;;;;;;;;;;;;;;;;;6299275;28;20429;-62
2023/08/19 04:35:47;;;;;;;;;;;;;;;;;;6281087;28;20397;-63
2023/08/19 04:38:48;;;;;;;;;;;;;;;;;;6297871;28;19924;-62
2023/08/19 04:41:49;;;;;;;;;;;;;;;;;;6303544;28;20718;-62
2023/08/19 04:44:50;;;;;;;;;;;;;;;;;;6296110;28;20393;-63
2023/08/19 04:47:50;;;;;;;;;;;;;;;;;;6301327;28;19924;-61
2023/08/19 04:50:51;;;;;;;;;;;;;;;;;;6291843;28;19950;-62
2023/08/19 04:53:51;;;;;;;;;;;;;;;;;;6305266;28;19920;-63
2023/08/19 04:56:52;;;;;;;;;;;;;;;;;;6301705;28;19924;-62
2023/08/19 04:59:53;;;;;;;;;;;;;;;;;;6306646;28;19920;-63
2023/08/19 05:02:53;;;;;;;;;;;;;;;;;;6303640;28;20386;-66
2023/08/19 05:05:54;;;;;;;;;;;;;;;;;;6307030;28;19928;-63
2023/08/19 05:08:54;;;;;;;;;;;;;;;;;;6315829;28;19927;-62
2023/08/19 05:11:55;;;;;;;;;;;;;;;;;;6304462;28;19993;-64
2023/08/19 05:14:55;;;;;;;;;;;;;;;;;;6289400;28;19924;-64
2023/08/19 05:17:56;;;;;;;;;;;;;;;;;;6304939;28;20290;-65
2023/08/19 05:20:56;;;;;;;;;;;;;;;;;;6296113;28;20602;-64
2023/08/19 05:23:57;;;;;;;;;;;;;;;;;;6306069;28;19928;-65
2023/08/19 05:26:57;;;;;;;;;;;;;;;;;;6303583;28;20002;-64
2023/08/19 05:29:58;;;;;;;;;;;;;;;;;;6315496;28;19942;-64
2023/08/19 05:32:59;;;;;;;;;;;;;;;;;;6312991;28;19920;-64
2023/08/19 05:35:59;;;;;;;;;;;;;;;;;;6311773;28;19928;-63
2023/08/19 05:39:00;;;;;;;;;;;;;;;;;;6313322;28;19919;-63
2023/08/19 05:42:00;;;;;;;;;;;;;;;;;;6324989;28;19919;-63
2023/08/19 05:45:01;;;;;;;;;;;;;;;;;;6313660;28;20379;-64
2023/08/19 05:48:01;;;;;;;;;;;;;;;;;;6308744;28;19920;-61
2023/08/19 05:51:02;;;;;;;;;;;;;;;;;;6314355;28;20417;-65
2023/08/19 05:54:03;;;;;;;;;;;;;;;;;;6297041;28;20010;-65
2023/08/19 05:57:04;;;;;;;;;;;;;;;;;;6292975;28;19920;-64
2023/08/19 06:00:04;;;;;;;;;;;;;;;;;;6314002;28;20294;-65
2023/08/19 06:03:06;;;;;;;;;;;;;;;;;;6318896;28;20382;-66
2023/08/19 06:06:06;;;;;;;;;;;;;;;;;;6313083;28;19920;-65
2023/08/19 06:09:08;;;;;;;;;;;;;;;;;;6314479;28;20294;-64
2023/08/19 06:12:08;;;;;;;;;;;;;;;;;;6314665;28;19920;-66
2023/08/19 06:15:09;;;;;;;;;;;;;;;;;;6317560;28;19920;-65
2023/08/19 06:18:09;;;;;;;;;;;;;;;;;;6312586;28;19920;-65
2023/08/19 06:21:11;;;;;;;;;;;;;;;;;;6295941;28;20707;-65
2023/08/19 06:24:12;;;;;;;;;;;;;;;;;;6307283;28;20014;-66
2023/08/19 06:27:12;;;;;;;;;;;;;;;;;;6315385;28;19955;-65
2023/08/19 06:30:13;;;;;;;;;;;;;;;;;;6319748;28;19919;-66
2023/08/19 06:33:14;;;;;;;;;;;;;;;;;;6320703;28;20362;-66
2023/08/19 06:36:17;;;;;;;;;;;;;;;;;;6311456;28;20009;-65
2023/08/19 06:39:25;;;;;;;;;;;;;;;;;;6315814;28;19934;-62
2023/08/19 06:42:27;;;;;;;;;;;;;;;;;;6323020;28;19920;-66
2023/08/19 06:45:28;;;;;;;;;;;;;;;;;;6303320;28;19929;-63
2023/08/19 06:48:29;;;;;;;;;;;;;;;;;;6314377;28;20382;-67
2023/08/19 06:51:30;;;;;;;;;;;;;;;;;;6312993;28;19924;-63
2023/08/19 06:54:30;;;;;;;;;;;;;;;;;;6294124;28;19978;-65
2023/08/19 06:57:47;;;;;;;;;;;;;;;;;;6292813;28;19932;-65
2023/08/19 07:00:49;;;;;;;;;;;;;;;;;;6293834;28;19928;-62
2023/08/19 07:03:50;;;;;;;;;;;;;;;;;;6277796;28;19942;-65
2023/08/19 07:06:51;;;;;;;;;;;;;;;;;;6307271;28;19928;-63
2023/08/19 07:09:52;;;;;;;;;;;;;;;;;;6293264;28;19924;-63
2023/08/19 07:12:52;;;;;;;;;;;;;;;;;;6294045;28;19935;-67
2023/08/19 07:15:57;;;;;;;;;;;;;;;;;;6306136;28;19931;-62
2023/08/19 07:18:59;;;;;;;;;;;;;;;;;;6318058;28;19923;-60
2023/08/19 07:22:00;;;;;;;;;;;;;;;;;;6313306;28;20461;-64
2023/08/19 07:25:00;;;;;;;;;;;;;;;;;;6318161;28;19934;-62
2023/08/19 07:28:02;;;;;;;;;;;;;;;;;;6316926;28;20421;-63
2023/08/19 07:31:04;;;;;;;;;;;;;;;;;;6317646;28;20415;-65
2023/08/19 07:34:04;;;;;;;;;;;;;;;;;;6317769;28;19923;-64
2023/08/19 07:37:05;;;;;;;;;;;;;;;;;;6311915;28;19931;-68
2023/08/19 07:40:06;;;;;;;;;;;;;;;;;;6313307;28;19970;-61
2023/08/19 07:43:06;;;;;;;;;;;;;;;;;;6306441;28;19946;-63
2023/08/19 07:46:07;;;;;;;;;;;;;;;;;;6308413;28;19928;-64
2023/08/19 07:49:07;;;;;;;;;;;;;;;;;;6313991;28;19923;-62
2023/08/19 07:52:08;;;;;;;;;;;;;;;;;;6323108;28;19950;-64
2023/08/19 07:55:08;;;;;;;;;;;;;;;;;;6320258;28;20366;-64
2023/08/19 07:58:09;;;;;;;;;;;;;;;;;;6309621;28;20440;-64
2023/08/19 08:01:10;;;;;;;;;;;;;;;;;;6313937;28;19935;-64
2023/08/19 08:04:11;;;;;;;;;;;;;;;;;;6313547;28;19959;-64
2023/08/19 08:07:11;;;;;;;;;;;;;;;;;;6308695;28;19919;-63
2023/08/19 08:10:12;;;;;;;;;;;;;;;;;;6309592;28;19924;-64
2023/08/19 08:13:12;;;;;;;;;;;;;;;;;;6311335;28;19924;-63
2023/08/19 08:16:13;;;;;;;;;;;;;;;;;;6314391;28;20005;-63
2023/08/19 08:19:14;;;;;;;;;;;;;;;;;;6291178;28;19926;-62
2023/08/19 08:22:14;;;;;;;;;;;;;;;;;;6303687;28;19920;-63
2023/08/19 08:25:15;;;;;;;;;;;;;;;;;;6313180;28;19927;-64
2023/08/19 08:28:15;;;;;;;;;;;;;;;;;;6316630;28;20006;-64
2023/08/19 08:31:16;;;;;;;;;;;;;;;;;;6313482;28;20367;-64
2023/08/19 08:34:16;;;;;;;;;;;;;;;;;;6312503;28;19920;-64
2023/08/19 08:37:17;;;;;;;;;;;;;;;;;;6311523;28;19924;-64
2023/08/19 08:40:17;;;;;;;;;;;;;;;;;;6317604;28;19924;-64
2023/08/19 08:43:18;;;;;;;;;;;;;;;;;;6313028;28;19920;-64
2023/08/19 08:46:21;;;;;;;;;;;;;;;;;;6310176;28;19923;-64
2023/08/19 08:49:23;;;;;;;;;;;;;;;;;;6294320;28;20095;-63
2023/08/19 08:52:24;;;;;;;;;;;;;;;;;;6312587;28;20286;-63
2023/08/19 08:55:24;;;;;;;;;;;;;;;;;;6319984;28;20416;-63
2023/08/19 08:58:25;;;;;;;;;;;;;;;;;;6316972;28;19955;-62
2023/08/19 09:01:28;;;;;;;;;;;;;;;;;;6317387;28;19924;-62
2023/08/19 09:04:30;;;;;;;;;;;;;;;;;;6318898;28;19969;-63
2023/08/19 09:07:31;;;;;;;;;;;;;;;;;;6316254;28;19972;-64
2023/08/19 09:10:33;;;;;;;;;;;;;;;;;;6316844;28;20289;-64
2023/08/19 09:13:34;;;;;;;;;;;;;;;;;;6316935;28;19920;-63
2023/08/19 09:16:35;;;;;;;;;;;;;;;;;;6314371;28;19924;-63
2023/08/19 09:19:35;;;;;;;;;;;;;;;;;;6320872;28;19920;-64
2023/08/19 09:22:38;;;;;;;;;;;;;;;;;;6315797;28;19982;-64
2023/08/19 09:25:39;;;;;;;;;;;;;;;;;;6315341;28;20085;-64
2023/08/19 09:28:40;;;;;;;;;;;;;;;;;;6315566;28;19924;-64
2023/08/19 09:31:40;;;;;;;;;;;;;;;;;;6321531;28;20290;-64
2023/08/19 09:34:41;;;;;;;;;;;;;;;;;;6317457;28;19926;-64
2023/08/19 09:37:42;;;;;;;;;;;;;;;;;;6314326;28;20248;-64
2023/08/19 09:40:43;;;;;;;;;;;;;;;;;;6317671;28;19951;-64
2023/08/19 09:43:46;;;;;;;;;;;;;;;;;;6319538;28;19935;-63
2023/08/19 09:46:47;;;;;;;;;;;;;;;;;;6312505;28;19928;-63
2023/08/19 09:49:56;;;;;;;;;;;;;;;;;;6311571;28;19990;-63
2023/08/19 09:52:57;;;;;;;;;;;;;;;;;;6294321;28;20366;-63
2023/08/19 09:55:58;;;;;;;;;;;;;;;;;;6312329;28;19974;-63
2023/08/19 09:58:59;;;;;;;;;;;;;;;;;;6315659;28;19959;-63
2023/08/19 10:01:59;;;;;;;;;;;;;;;;;;6317766;28;19924;-63
2023/08/19 10:05:00;;;;;;;;;;;;;;;;;;6319734;28;20022;-63
2023/08/19 10:08:03;;;;;;;;;;;;;;;;;;6314507;28;19931;-64
2023/08/19 10:11:04;;;;;;;;;;;;;;;;;;6316404;28;19924;-64
2023/08/19 10:14:06;;;;;;;;;;;;;;;;;;6317834;28;19977;-63
2023/08/19 10:17:07;;;;;;;;;;;;;;;;;;6294442;28;19924;-63
2023/08/19 10:20:12;;;;;;;;;;;;;;;;;;6307193;28;19935;-63
2023/08/19 10:23:13;;;;;;;;;;;;;;;;;;6314043;28;19923;-64
2023/08/19 10:26:17;;;;;;;;;;;;;;;;;;6317996;28;19920;-64
2023/08/19 10:29:17;;;;;;;;;;;;;;;;;;6312517;28;19928;-64
2023/08/19 10:32:27;;;;;;;;;;;;;;;;;;6315927;28;19973;-64
2023/08/19 10:35:27;;;;;;;;;;;;;;;;;;6315085;28;19934;-64
2023/08/19 10:38:47;;;;;;;;;;;;;;;;;;6309317;28;19924;-63
2023/08/19 10:41:49;;;;;;;;;;;;;;;;;;6293975;28;19971;-63
2023/08/19 10:44:51;;;;;;;;;;;;;;;;;;6311498;28;19920;-63
2023/08/19 10:47:52;;;;;;;;;;;;;;;;;;6310229;28;19924;-63
2023/08/19 10:50:56;;;;;;;;;;;;;;;;;;6276148;28;19924;-63
2023/08/19 10:54:09;;;;;;;;;;;;;;;;;;6305311;28;19924;-63
2023/08/19 10:57:09;;;;;;;;;;;;;;;;;;6312837;28;20448;-63
2023/08/19 11:00:11;;;;;;;;;;;;;;;;;;6315518;28;19923;-63
2023/08/19 11:03:12;;;;;;;;;;;;;;;;;;6314792;28;19924;-63
2023/08/19 11:06:12;;;;;;;;;;;;;;;;;;6314382;28;19924;-63
2023/08/19 11:09:13;;;;;;;;;;;;;;;;;;6318712;28;20408;-63
2023/08/19 11:12:20;;;;;;;;;;;;;;;;;;6310610;28;19924;-64
2023/08/19 11:15:26;;;;;;;;;;;;;;;;;;6305708;28;20647;-64
2023/08/19 11:18:27;;;;;;;;;;;;;;;;;;6302486;28;20050;-63
2023/08/19 11:21:27;;;;;;;;;;;;;;;;;;6307835;28;19930;-64
2023/08/19 11:24:31;;;;;;;;;;;;;;;;;;6321702;28;19935;-64
2023/08/19 11:27:31;;;;;;;;;;;;;;;;;;6308609;28;19928;-62
2023/08/19 11:30:34;;;;;;;;;;;;;;;;;;6319639;28;19920;-64
2023/08/19 11:33:35;;;;;;;;;;;;;;;;;;6315462;28;19970;-64
2023/08/19 11:36:36;;;;;;;;;;;;;;;;;;6309217;28;20330;-66
2023/08/19 11:39:36;;;;;;;;;;;;;;;;;;6302306;28;19923;-63
2023/08/19 11:42:37;;;;;;;;;;;;;;;;;;6311074;28;19943;-63
2023/08/19 11:45:40;;;;;;;;;;;;;;;;;;6316918;28;19928;-64
2023/08/19 11:48:41;;;;;;;;;;;;;;;;;;6317538;28;19940;-64
2023/08/19 11:51:42;;;;;;;;;;;;;;;;;;6314298;28;19920;-65
2023/08/19 11:54:49;;;;;;;;;;;;;;;;;;6309396;28;20441;-65
2023/08/19 11:57:49;;;;;;;;;;;;;;;;;;6296670;28;19920;-64
2023/08/19 12:00:52;;;;;;;;;;;;;;;;;;6303489;28;19935;-64
2023/08/19 12:03:54;;;;;;;;;;;;;;;;;;6290880;28;19998;-62
2023/08/19 12:06:55;;;;;;;;;;;;;;;;;;6315375;28;20815;-63
2023/08/19 12:09:56;;;;;;;;;;;;;;;;;;6317243;28;19924;-64
2023/08/19 12:12:58;;;;;;;;;;;;;;;;;;6315313;28;20294;-63
2023/08/19 12:15:59;;;;;;;;;;;;;;;;;;6317238;28;20398;-63
2023/08/19 12:18:59;;;;;;;;;;;;;;;;;;6317304;28;19965;-63
2023/08/19 12:22:00;;;;;;;;;;;;;;;;;;6315646;28;19920;-63
2023/08/19 12:25:00;;;;;;;;;;;;;;;;;;6318956;28;19924;-63
2023/08/19 12:28:03;;;;;;;;;;;;;;;;;;6320907;28;19977;-63
2023/08/19 12:31:04;;;;;;;;;;;;;;;;;;6299847;28;20317;-64
2023/08/19 12:34:04;;;;;;;;;;;;;;;;;;6300677;28;19927;-65
2023/08/19 12:37:05;;;;;;;;;;;;;;;;;;6312736;28;19920;-65
2023/08/19 12:40:06;;;;;;;;;;;;;;;;;;6301202;28;19920;-66
2023/08/19 12:43:06;;;;;;;;;;;;;;;;;;6307323;28;20007;-63
2023/08/19 12:46:07;;;;;;;;;;;;;;;;;;6316568;28;19930;-64
2023/08/19 12:49:07;;;;;;;;;;;;;;;;;;6316567;28;19924;-66
2023/08/19 12:52:08;;;;;;;;;;;;;;;;;;6315458;28;19920;-63
2023/08/19 12:55:08;;;;;;;;;;;;;;;;;;6315849;28;20446;-63
2023/08/19 12:58:09;;;;;;;;;;;;;;;;;;6314264;28;19931;-62
2023/08/19 13:01:11;;;;;;;;;;;;;;;;;;6301701;28;19954;-63
2023/08/19 13:04:11;;;;;;;;;;;;;;;;;;6303928;28;19924;-63
2023/08/19 13:07:12;;;;;;;;;;;;;;;;;;6303114;28;19979;-64
2023/08/19 13:10:13;;;;;;;;;;;;;;;;;;6306469;28;20021;-63
2023/08/19 13:13:14;;;;;;;;;;;;;;;;;;6286270;28;20377;-62
2023/08/19 13:16:14;;;;;;;;;;;;;;;;;;6290370;28;19928;-62
2023/08/19 13:19:15;;;;;;;;;;;;;;;;;;6289742;28;19934;-62
2023/08/19 13:22:18;;;;;;;;;;;;;;;;;;6287689;28;19931;-63
2023/08/19 13:25:18;;;;;;;;;;;;;;;;;;6289451;28;19926;-63
2023/08/19 13:28:19;;;;;;;;;;;;;;;;;;6292176;28;19920;-62
2023/08/19 13:31:19;;;;;;;;;;;;;;;;;;6287549;28;19920;-62
2023/08/19 13:34:21;;;;;;;;;;;;;;;;;;6289231;28;20405;-62
2023/08/19 13:37:22;;;;;;;;;;;;;;;;;;6292433;28;19973;-62
2023/08/19 13:40:22;;;;;;;;;;;;;;;;;;6294760;28;20256;-62
2023/08/19 13:43:23;;;;;;;;;;;;;;;;;;6291615;28;19927;-62
2023/08/19 13:46:23;;;;;;;;;;;;;;;;;;6297002;28;19928;-62
2023/08/19 13:49:24;;;;;;;;;;;;;;;;;;6296255;28;19935;-62
2023/08/19 13:52:54;;;;;;;;;;;;;;;;;;6288380;28;19928;-62
2023/08/19 13:55:55;;;;;;;;;;;;;;;;;;6272788;28;19928;-62
2023/08/19 13:58:56;;;;;;;;;;;;;;;;;;6295190;28;19986;-61
2023/08/19 14:01:56;;;;;;;;;;;;;;;;;;6289769;28;20330;-62
2023/08/19 14:04:57;;;;;;;;;;;;;;;;;;6293327;28;19928;-61
2023/08/19 14:07:57;;;;;;;;;;;;;;;;;;6295351;28;20926;-61
2023/08/19 14:10:58;;;;;;;;;;;;;;;;;;6293733;28;19935;-62
2023/08/19 14:13:58;;;;;;;;;;;;;;;;;;6293595;28;19942;-62
2023/08/19 14:16:59;;;;;;;;;;;;;;;;;;6293113;28;19928;-63
2023/08/19 14:19:59;;;;;;;;;;;;;;;;;;6290985;28;19931;-62
2023/08/19 14:23:00;;;;;;;;;;;;;;;;;;6287871;28;19951;-63
2023/08/19 14:26:00;;;;;;;;;;;;;;;;;;6294917;28;19936;-63
2023/08/19 14:29:01;;;;;;;;;;;;;;;;;;6292469;28;19932;-63
2023/08/19 14:32:01;;;;;;;;;;;;;;;;;;6293261;28;19928;-63
2023/08/19 14:35:03;;;;;;;;;;;;;;;;;;6290282;28;19998;-63
2023/08/19 14:38:04;;;;;;;;;;;;;;;;;;6293572;28;19931;-64
2023/08/19 14:41:04;;;;;;;;;;;;;;;;;;6291068;28;19928;-64
2023/08/19 14:44:05;;;;;;;;;;;;;;;;;;6290947;28;20047;-64
2023/08/19 14:47:06;;;;;;;;;;;;;;;;;;6291716;28;19934;-63
2023/08/19 14:50:07;;;;;;;;;;;;;;;;;;6288143;28;20458;-63
2023/08/19 14:53:08;;;;;;;;;;;;;;;;;;6289468;28;19935;-64
2023/08/19 14:56:09;;;;;;;;;;;;;;;;;;6292340;28;19920;-63
2023/08/19 14:59:09;;;;;;;;;;;;;;;;;;6292937;28;19927;-63
2023/08/19 15:02:12;;;;;;;;;;;;;;;;;;6288307;28;19931;-63
2023/08/19 15:05:13;;;;;;;;;;;;;;;;;;6288388;28;19932;-63
2023/08/19 15:08:13;;;;;;;;;;;;;;;;;;6292256;28;19930;-64
2023/08/19 15:11:14;;;;;;;;;;;;;;;;;;6291377;28;19928;-62
2023/08/19 15:14:14;;;;;;;;;;;;;;;;;;6287036;28;19935;-66
2023/08/19 15:17:15;;;;;;;;;;;;;;;;;;6290624;28;20030;-67
2023/08/19 15:20:15;;;;;;;;;;;;;;;;;;6291984;28;19997;-64
2023/08/19 15:23:16;;;;;;;;;;;;;;;;;;6291742;28;19935;-64
2023/08/19 15:26:17;;;;;;;;;;;;;;;;;;6291917;28;19923;-64
2023/08/19 15:29:19;;;;;;;;;;;;;;;;;;6291788;28;20347;-65
2023/08/19 15:32:19;;;;;;;;;;;;;;;;;;6286373;28;20375;-64
2023/08/19 15:35:20;;;;;;;;;;;;;;;;;;6290357;28;19939;-65
2023/08/19 15:38:20;;;;;;;;;;;;;;;;;;6288544;28;19921;-64
2023/08/19 15:41:21;;;;;;;;;;;;;;;;;;6273743;28;19927;-66
2023/08/19 15:44:21;;;;;;;;;;;;;;;;;;6289464;28;19932;-66
2023/08/19 15:47:22;;;;;;;;;;;;;;;;;;6293264;28;20397;-64
2023/08/19 15:50:22;;;;;;;;;;;;;;;;;;6290258;28;19951;-64
2023/08/19 15:53:23;;;;;;;;;;;;;;;;;;6289556;28;19924;-65
2023/08/19 15:56:23;;;;;;;;;;;;;;;;;;6290770;28;19933;-65
2023/08/19 15:59:24;;;;;;;;;;;;;;;;;;6286545;28;20371;-64
2023/08/19 16:02:24;;;;;;;;;;;;;;;;;;6288666;28;20337;-66
2023/08/19 16:05:25;;;;;;;;;;;;;;;;;;6287269;28;20388;-67
2023/08/19 16:08:26;;;;;;;;;;;;;;;;;;6284737;28;19920;-67
2023/08/19 16:11:26;;;;;;;;;;;;;;;;;;6288445;28;19934;-66
2023/08/19 16:14:27;;;;;;;;;;;;;;;;;;6288439;28;19951;-66
2023/08/19 16:17:27;;;;;;;;;;;;;;;;;;6293900;28;19928;-65
2023/08/19 16:20:28;;;;;;;;;;;;;;;;;;6293842;28;20425;-62
2023/08/19 16:23:29;;;;;;;;;;;;;;;;;;6286389;28;19924;-63
2023/08/19 16:26:30;;;;;;;;;;;;;;;;;;6288467;28;20605;-63
2023/08/19 16:29:30;;;;;;;;;;;;;;;;;;6288057;28;19929;-63
2023/08/19 16:32:31;;;;;;;;;;;;;;;;;;6284669;28;19963;-62
2023/08/19 16:35:31;;;;;;;;;;;;;;;;;;6287095;28;20272;-62
2023/08/19 16:38:32;;;;;;;;;;;;;;;;;;6285770;28;19935;-63
2023/08/19 16:41:32;;;;;;;;;;;;;;;;;;6294544;28;19928;-63
2023/08/19 16:44:33;;;;;;;;;;;;;;;;;;6285959;28;19934;-62
2023/08/19 16:47:34;;;;;;;;;;;;;;;;;;6286637;28;19928;-62
2023/08/19 16:50:34;;;;;;;;;;;;;;;;;;6283329;28;19924;-63
2023/08/19 16:53:35;;;;;;;;;;;;;;;;;;6279468;28;19985;-63
2023/08/19 16:56:35;;;;;;;;;;;;;;;;;;6282432;28;19925;-62
2023/08/19 16:59:36;;;;;;;;;;;;;;;;;;6282535;28;19932;-62
2023/08/19 17:02:39;;;;;;;;;;;;;;;;;;6281693;28;19931;-63
2023/08/19 17:05:39;;;;;;;;;;;;;;;;;;6283131;28;19971;-62
2023/08/19 17:08:40;;;;;;;;;;;;;;;;;;6284159;28;20377;-60
2023/08/19 17:11:42;;;;;;;;;;;;;;;;;;6283131;28;19928;-62
2023/08/19 17:14:42;;;;;;;;;;;;;;;;;;6285062;28;19921;-62
2023/08/19 17:17:43;;;;;;;;;;;;;;;;;;6287745;28;20375;-61
2023/08/19 17:20:43;;;;;;;;;;;;;;;;;;6289516;28;19924;-61
2023/08/19 17:23:44;;;;;;;;;;;;;;;;;;6288156;28;20630;-62
2023/08/19 17:26:44;;;;;;;;;;;;;;;;;;6288890;28;19933;-61
2023/08/19 17:29:45;;;;;;;;;;;;;;;;;;6289599;28;19928;-65
2023/08/19 17:32:46;;;;;;;;;;;;;;;;;;6284760;28;19987;-61
2023/08/19 17:35:46;;;;;;;;;;;;;;;;;;6287086;28;20371;-62
2023/08/19 17:38:47;;;;;;;;;;;;;;;;;;6287178;28;19935;-62
2023/08/19 17:41:47;;;;;;;;;;;;;;;;;;6286622;28;19928;-62
2023/08/19 17:44:52;;;;;;;;;;;;;;;;;;6283632;28;19928;-61
2023/08/19 17:47:52;;;;;;;;;;;;;;;;;;6288365;28;19974;-60
2023/08/19 17:50:53;;;;;;;;;;;;;;;;;;6287693;28;20492;-60
2023/08/19 17:53:53;;;;;;;;;;;;;;;;;;6285041;28;19966;-63
2023/08/19 17:56:54;;;;;;;;;;;;;;;;;;6288084;28;19927;-62
2023/08/19 17:59:54;;;;;;;;;;;;;;;;;;6285664;28;20361;-62
2023/08/19 18:02:55;;;;;;;;;;;;;;;;;;6282283;28;19925;-62
2023/08/19 18:05:55;;;;;;;;;;;;;;;;;;6286843;28;19952;-62
2023/08/19 18:08:56;;;;;;;;;;;;;;;;;;6287096;28;20922;-62
2023/08/19 18:11:57;;;;;;;;;;;;;;;;;;6284604;28;20390;-63
2023/08/19 18:14:57;;;;;;;;;;;;;;;;;;6283066;28;19931;-61
2023/08/19 18:17:58;;;;;;;;;;;;;;;;;;6286921;28;19931;-60
2023/08/19 18:20:59;;;;;;;;;;;;;;;;;;6284921;28;19928;-62
2023/08/19 18:23:59;;;;;;;;;;;;;;;;;;6279170;28;19944;-60
2023/08/19 18:27:00;;;;;;;;;;;;;;;;;;6282385;28;19928;-60
2023/08/19 18:30:00;;;;;;;;;;;;;;;;;;6288938;28;19947;-60
2023/08/19 18:33:01;;;;;;;;;;;;;;;;;;6283582;28;19931;-60
2023/08/19 18:36:02;;;;;;;;;;;;;;;;;;6285566;28;19966;-61
2023/08/19 18:39:04;;;;;;;;;;;;;;;;;;6283387;28;19928;-60
2023/08/19 18:42:04;;;;;;;;;;;;;;;;;;6282421;28;19920;-60
2023/08/19 18:45:06;;;;;;;;;;;;;;;;;;6283073;28;20273;-59
2023/08/19 18:48:08;;;;;;;;;;;;;;;;;;6284908;28;20326;-59
2023/08/19 18:51:09;;;;;;;;;;;;;;;;;;6303847;28;19958;-60
2023/08/19 18:54:10;;;;;;;;;;;;;;;;;;6301059;28;20402;-59
2023/08/19 18:57:10;;;;;;;;;;;;;;;;;;6309704;28;20354;-60
2023/08/19 19:00:11;;;;;;;;;;;;;;;;;;6306484;28;19931;-61
2023/08/19 19:03:12;;;;;;;;;;;;;;;;;;6305683;28;20373;-60
2023/08/19 19:06:13;;;;;;;;;;;;;;;;;;6312623;28;19931;-60
2023/08/19 19:09:14;;;;;;;;;;;;;;;;;;6310400;28;20031;-61
2023/08/19 19:12:14;;;;;;;;;;;;;;;;;;6309600;28;19927;-61
2023/08/19 19:15:17;;;;;;;;;;;;;;;;;;6316804;28;20244;-61
2023/08/19 19:18:17;;;;;;;;;;;;;;;;;;6323584;28;19927;-60
2023/08/19 19:21:18;;;;;;;;;;;;;;;;;;6314302;28;19952;-62
2023/08/19 19:24:19;;;;;;;;;;;;;;;;;;6314950;28;19989;-61
2023/08/19 19:27:19;;;;;;;;;;;;;;;;;;6317113;28;20386;-65
2023/08/19 19:30:21;;;;;;;;;;;;;;;;;;6321158;28;19923;-64
2023/08/19 19:33:22;;;;;;;;;;;;;;;;;;6314739;28;20015;-63
2023/08/19 19:36:23;;;;;;;;;;;;;;;;;;6316741;28;19942;-61
2023/08/19 19:39:23;;;;;;;;;;;;;;;;;;6296286;28;19924;-61
2023/08/19 19:42:24;;;;;;;;;;;;;;;;;;6291986;28;20438;-62
2023/08/19 19:45:24;;;;;;;;;;;;;;;;;;6295827;28;19923;-61
2023/08/19 19:48:25;;;;;;;;;;;;;;;;;;6295508;28;20279;-62
2023/08/19 19:51:26;;;;;;;;;;;;;;;;;;6294183;28;19923;-61
2023/08/19 19:54:26;;;;;;;;;;;;;;;;;;6292649;28;19928;-61
2023/08/19 19:57:27;;;;;;;;;;;;;;;;;;6298840;28;19931;-61
2023/08/19 20:00:27;;;;;;;;;;;;;;;;;;6295063;28;20018;-60
2023/08/19 20:03:28;;;;;;;;;;;;;;;;;;6287386;28;19974;-61
2023/08/19 20:06:28;;;;;;;;;;;;;;;;;;6294632;28;20377;-61
2023/08/19 20:09:29;;;;;;;;;;;;;;;;;;6292813;28;19920;-60
2023/08/19 20:12:29;;;;;;;;;;;;;;;;;;6289888;28;19945;-62
2023/08/19 20:15:30;;;;;;;;;;;;;;;;;;6296992;28;19920;-62
2023/08/19 20:18:30;;;;;;;;;;;;;;;;;;6291633;28;20017;-62
2023/08/19 20:21:31;;;;;;;;;;;;;;;;;;6288348;28;19927;-62
2023/08/19 20:24:31;;;;;;;;;;;;;;;;;;6289946;28;20006;-62
2023/08/19 20:27:32;;;;;;;;;;;;;;;;;;6290191;28;19928;-62
2023/08/19 20:30:32;;;;;;;;;;;;;;;;;;6292207;28;20006;-61
2023/08/19 20:33:33;;;;;;;;;;;;;;;;;;6289638;28;19930;-62
2023/08/19 20:36:33;;;;;;;;;;;;;;;;;;6292029;28;19983;-62